• Join FlightAware (Why Join?)
  • Login
  • US Flag 
07:06AM EDT


 

Airport Tracker/Info


-or-


 

Live Flight TrackerFlight Track Log ✈ KAL1228 ✈ 16-May-2013 ✈ RKPC / CJU - RKSS / GMP

Flight Track Log - Related Links

Times and Time Zones

All times are in EDT time to prevent confusion due to time zone crossing. See the KAL1228 flight status page for this flight to view local times or setup timezone preferences in your user account.

Time Position Orientation Groundspeed Altitude Reporting Facility
EDT Latitude Longitude Course Direction KTS MPH feet Rate Location/Type
02:35AM 36.7070 127.0450 37° Northeast 403 464 21,100  Level FlightAware
02:36AM 36.7850 127.1180 37° Northeast 404 465 20,600 -1,020 Descending FlightAware
02:37AM 36.8700 127.1980 37° Northeast 389 448 19,300 -1,260 Descending FlightAware
02:37AM 36.9350 127.2600 37° Northeast 384 442 18,500 -1,380 Descending FlightAware
02:38AM 36.9930 127.3140 37° Northeast 370 426 17,400 -1,680 Descending FlightAware
02:39AM 37.0490 127.3670 37° Northeast 369 425 16,300 -1,500 Descending FlightAware
02:39AM 37.1090 127.4230 37° Northeast 360 414 15,300 -1,200 Descending FlightAware
02:40AM 37.1610 127.4720 37° Northeast 343 395 14,600 -1,020 Descending FlightAware
02:41AM 37.1970 127.4920 24° Northeast 327 376 14,200 -540 Descending FlightAware
02:42AM 37.2570 127.4250 318° Northwest 295 339 13,800 -660 Descending FlightAware
02:42AM 37.2710 127.3440 282° West 284 327 13,000 -1,020 Descending FlightAware
02:43AM 37.2850 127.2690 283° West 289 333 12,200 -1,080 Descending FlightAware
02:44AM 37.2970 127.2020 283° West 290 334 11,500 -1,020 Descending FlightAware
02:45AM 37.3080 127.1380 282° West 285 328 10,900 -900 Descending FlightAware
02:45AM 37.3350 127.0730 298° West 282 325 10,300 -720 Descending FlightAware
02:46AM 37.3680 127.0130 305° West 282 325 9,900 -360 Descending FlightAware
02:46AM 37.3870 126.9780 304° West 281 323 9,900  Level FlightAware
02:47AM 37.4070 126.9410 304° West 281 323 9,900  Level FlightAware
02:47AM 37.4130 126.9270 298° West 284 327 9,900 -900 Level FlightAware
02:48AM 37.4320 126.8720 294° West 283 326 9,300 -1,020 Descending FlightAware
02:48AM 37.4450 126.8300 291° West 282 325 8,900 -1,080 Descending FlightAware
02:49AM 37.4700 126.7520 292° West 275 316 7,900 -1,140 Descending FlightAware
02:49AM 37.4840 126.7080 292° West 278 320 7,400 -1,140 Descending FlightAware
02:50AM 37.5070 126.6750 311° West 270 311 6,900 -660 Descending FlightAware
02:51AM 37.5370 126.6360 314° West 260 299 6,700 -300 Descending FlightAware
02:53AM 37.5583 126.7906 80° East  Level Estimated
02:54AM 37.5583 126.7906 288° West  Level Estimated
02:55AM 37.5583 126.7906 288° West  Level Estimated
02:56AM 37.5583 126.7906 288° West  Level Estimated
02:57AM 37.5583 126.7906 288° West  Level Estimated
02:58AM 37.5583 126.7906 288° West  Level Estimated
02:59AM 37.5583 126.7906 288° West  Level Estimated
03:00AM 37.5583 126.7906 288° West  Level Estimated
03:01AM 37.5583 126.7906 288° West  Level Estimated
03:02AM 37.5583 126.7906 288° West  Level Estimated